createdAt,value
2022-08-05T00:00:03.563Z,19.22
2022-08-05T00:00:34.382Z,19.22
2022-08-05T00:01:20.884Z,19.22
2022-08-05T00:01:49.554Z,19.22
2022-08-05T00:02:11.327Z,19.22
2022-08-05T00:02:43.878Z,19.22
2022-08-05T00:03:15.535Z,19.22
2022-08-05T00:03:46.113Z,19.22
2022-08-05T00:04:19.111Z,19.22
2022-08-05T00:04:55.364Z,19.22
2022-08-05T00:06:02.475Z,19.22
2022-08-05T00:06:27.796Z,19.22
2022-08-05T00:06:45.129Z,19.22
2022-08-05T00:07:27.102Z,19.11
2022-08-05T00:08:32.827Z,19.11
2022-08-05T00:08:49.892Z,19.11
2022-08-05T00:09:21.946Z,19.11
2022-08-05T00:09:54.550Z,19.11
2022-08-05T00:10:27.258Z,19.11
2022-08-05T00:11:00.279Z,19.11
2022-08-05T00:11:34.576Z,19.11
2022-08-05T00:12:02.735Z,19.11
2022-08-05T00:12:33.802Z,19.11
2022-08-05T00:13:05.810Z,19.11
2022-08-05T00:13:39.973Z,19.11
2022-08-05T00:14:12.938Z,19.11
2022-08-05T00:14:41.706Z,19.11
2022-08-05T00:15:57.827Z,19.11
2022-08-05T00:16:02.582Z,19.11
2022-08-05T00:16:35.371Z,19.11
2022-08-05T00:17:19.389Z,19.11
2022-08-05T00:17:37.634Z,19.11
2022-08-05T00:18:21.340Z,19.22
2022-08-05T00:18:42.209Z,19.22
2022-08-05T00:19:14.567Z,19.22
2022-08-05T00:20:01.825Z,19.22
2022-08-05T00:20:20.439Z,19.22
2022-08-05T00:20:49.380Z,19.22
2022-08-05T00:21:23.319Z,19.22
2022-08-05T00:21:53.962Z,19.22
2022-08-05T00:22:26.279Z,19.22
2022-08-05T00:23:02.476Z,19.22
2022-08-05T00:23:44.574Z,19.22
2022-08-05T00:24:09.961Z,19.11
2022-08-05T00:24:34.248Z,19.11
2022-08-05T00:25:08.361Z,19.11
2022-08-05T00:25:45.984Z,19.11
2022-08-05T00:26:09.528Z,19.11
2022-08-05T00:26:43.383Z,19.00
2022-08-05T00:27:14.044Z,19.00
2022-08-05T00:27:46.091Z,19.00
2022-08-05T00:28:17.050Z,19.00
2022-08-05T00:28:50.053Z,18.88
2022-08-05T00:29:22.762Z,18.88
2022-08-05T00:29:53.956Z,18.88
2022-08-05T00:30:29.215Z,18.88
2022-08-05T00:31:04.323Z,18.88
2022-08-05T00:31:53.762Z,18.88
2022-08-05T00:32:17.106Z,18.77
2022-08-05T00:32:48.819Z,18.77
2022-08-05T00:34:55.133Z,18.77
2022-08-05T00:35:13.798Z,18.72
2022-08-05T00:35:47.970Z,18.61
2022-08-05T00:37:10.761Z,18.61
2022-08-05T00:37:21.823Z,18.61
2022-08-05T00:37:59.929Z,18.50
2022-08-05T00:38:28.992Z,18.50
2022-08-05T00:38:56.797Z,18.50
2022-08-05T00:39:29.657Z,18.38
2022-08-05T00:40:01.061Z,18.38
2022-08-05T00:40:33.679Z,18.38
2022-08-05T00:41:04.507Z,18.38
2022-08-05T00:41:46.879Z,18.38
2022-08-05T00:42:09.531Z,18.38
2022-08-05T00:42:41.670Z,18.38
2022-08-05T00:43:12.426Z,18.27
2022-08-05T00:43:49.488Z,18.27
2022-08-05T00:44:16.612Z,18.27
2022-08-05T00:44:49.480Z,18.27
2022-08-05T00:45:28.354Z,18.27
2022-08-05T00:45:53.433Z,18.27
2022-08-05T00:46:42.778Z,18.22
2022-08-05T00:47:04.100Z,18.22
2022-08-05T00:47:31.667Z,18.22
2022-08-05T00:48:05.757Z,18.22
2022-08-05T00:48:32.824Z,18.22
2022-08-05T00:49:06.430Z,18.22
2022-08-05T00:49:51.003Z,18.11
2022-08-05T00:50:09.288Z,18.11
2022-08-05T00:50:40.521Z,18.11
2022-08-05T00:51:51.893Z,18.11
2022-08-05T00:52:00.124Z,18.11
2022-08-05T00:52:32.198Z,18.11
2022-08-05T00:53:09.836Z,18.11
2022-08-05T00:54:08.079Z,18.11
2022-08-05T00:54:40.147Z,18.11
2022-08-05T00:55:13.396Z,18.11
2022-08-05T00:55:43.943Z,18.11
2022-08-05T00:56:17.316Z,18.00
2022-08-05T00:56:51.737Z,18.00
2022-08-05T00:57:21.260Z,18.00
2022-08-05T00:57:58.656Z,18.00
2022-08-05T00:58:27.368Z,18.00
2022-08-05T00:58:55.794Z,18.00
2022-08-05T00:59:34.714Z,18.00
2022-08-05T00:59:59.806Z,18.00
2022-08-05T01:00:32.324Z,18.00
2022-08-05T01:01:08.492Z,18.00
2022-08-05T01:01:42.653Z,18.00
2022-08-05T01:02:07.621Z,18.00
2022-08-05T01:02:39.641Z,18.00
2022-08-05T01:03:12.641Z,18.00
2022-08-05T01:03:43.753Z,18.00
2022-08-05T01:04:15.783Z,18.00
2022-08-05T01:04:50.451Z,18.00
2022-08-05T01:05:19.743Z,17.88
2022-08-05T01:05:54.456Z,17.88
2022-08-05T01:06:32.712Z,17.88
2022-08-05T01:06:55.491Z,17.88
2022-08-05T01:07:31.877Z,17.88
2022-08-05T01:08:40.698Z,18.00
2022-08-05T01:08:48.169Z,18.00
2022-08-05T01:09:21.389Z,18.00
2022-08-05T01:09:55.718Z,18.00
2022-08-05T01:10:25.763Z,18.00
2022-08-05T01:10:56.310Z,18.00
2022-08-05T01:11:36.770Z,18.00
2022-08-05T01:12:04.490Z,18.11
2022-08-05T01:12:32.318Z,18.11
2022-08-05T01:13:05.176Z,18.22
2022-08-05T01:13:57.474Z,18.22
2022-08-05T01:14:08.982Z,18.22
2022-08-05T01:14:40.102Z,18.22
2022-08-05T01:15:35.020Z,18.11
2022-08-05T01:15:47.798Z,18.11
2022-08-05T01:16:15.224Z,18.11
2022-08-05T01:16:48.039Z,18.11
2022-08-05T01:17:20.389Z,18.11
2022-08-05T01:17:53.782Z,18.11
2022-08-05T01:18:25.835Z,18.00
2022-08-05T01:18:56.347Z,18.00
2022-08-05T01:19:46.144Z,18.00
2022-08-05T01:20:02.829Z,18.00
2022-08-05T01:20:31.713Z,18.00
2022-08-05T01:21:03.869Z,18.00
2022-08-05T01:21:38.229Z,18.00
2022-08-05T01:22:07.931Z,18.00
2022-08-05T01:22:38.770Z,18.00
2022-08-05T01:23:15.338Z,18.00
2022-08-05T01:23:43.665Z,18.00
2022-08-05T01:24:15.978Z,17.88
2022-08-05T01:24:46.784Z,17.88
2022-08-05T01:25:22.010Z,17.88
2022-08-05T01:25:53.609Z,17.88
2022-08-05T01:26:26.337Z,17.77
2022-08-05T01:26:54.732Z,17.77
2022-08-05T01:27:27.788Z,17.77
2022-08-05T01:27:58.611Z,17.77
2022-08-05T01:28:31.617Z,17.72
2022-08-05T01:29:04.370Z,17.72
2022-08-05T01:29:35.681Z,17.72
2022-08-05T01:30:12.488Z,17.72
2022-08-05T01:30:39.472Z,17.72
2022-08-05T01:31:11.627Z,17.72
2022-08-05T01:31:45.176Z,17.72
2022-08-05T01:32:18.657Z,17.72
2022-08-05T01:32:49.517Z,17.72
2022-08-05T01:33:19.715Z,17.72
2022-08-05T01:33:51.961Z,17.72
2022-08-05T01:34:22.374Z,17.72
2022-08-05T01:34:55.455Z,17.72
2022-08-05T01:35:51.557Z,17.72
2022-08-05T01:35:59.306Z,17.72
2022-08-05T01:36:30.320Z,17.72
2022-08-05T01:37:04.254Z,17.72
2022-08-05T01:37:36.548Z,17.72
2022-08-05T01:38:07.343Z,17.72
2022-08-05T01:38:38.251Z,17.72
2022-08-05T01:39:12.188Z,17.72
2022-08-05T01:39:47.238Z,17.61
2022-08-05T01:40:28.935Z,17.61
2022-08-05T01:40:46.413Z,17.61
2022-08-05T01:41:20.998Z,17.61
2022-08-05T01:41:50.069Z,17.61
2022-08-05T01:42:23.097Z,17.61
2022-08-05T01:42:53.929Z,17.50
2022-08-05T01:43:26.923Z,17.50
2022-08-05T01:43:58.115Z,17.50
2022-08-05T01:44:34.481Z,17.50
2022-08-05T01:45:03.330Z,17.50
2022-08-05T01:45:35.123Z,17.50
2022-08-05T01:46:06.888Z,17.50
2022-08-05T01:46:42.810Z,17.50
2022-08-05T01:47:11.758Z,17.50
2022-08-05T01:47:43.320Z,17.50
2022-08-05T01:48:15.914Z,17.50
2022-08-05T01:48:49.599Z,17.50
2022-08-05T01:49:23.858Z,17.38
2022-08-05T01:50:01.514Z,17.38
2022-08-05T01:50:28.859Z,17.38
2022-08-05T01:50:54.715Z,17.38
2022-08-05T01:51:25.683Z,17.38
2022-08-05T01:51:59.025Z,17.38
2022-08-05T01:52:29.569Z,17.38
2022-08-05T01:53:02.630Z,17.38
2022-08-05T01:53:54.971Z,17.38
2022-08-05T01:54:06.534Z,17.38
2022-08-05T01:54:46.067Z,17.38
2022-08-05T01:55:10.857Z,17.38
2022-08-05T01:55:41.497Z,17.38
2022-08-05T01:58:12.659Z,17.38
2022-08-05T01:58:40.512Z,17.50
2022-08-05T01:58:53.320Z,17.50
2022-08-05T01:59:26.373Z,17.50
2022-08-05T01:59:57.445Z,17.50
2022-08-05T02:00:31.130Z,17.50
2022-08-05T02:01:07.484Z,17.50
2022-08-05T02:01:40.036Z,17.50
2022-08-05T02:02:05.287Z,17.50
2022-08-05T02:02:38.131Z,17.50
2022-08-05T02:03:24.053Z,17.50
2022-08-05T02:03:42.165Z,17.38
2022-08-05T02:04:13.106Z,17.38
2022-08-05T02:04:49.440Z,17.38
2022-08-05T02:05:17.221Z,17.38
2022-08-05T02:05:49.831Z,17.38
2022-08-05T02:06:37.930Z,17.38
2022-08-05T02:06:53.953Z,17.38
2022-08-05T02:07:25.281Z,17.38
2022-08-05T02:08:01.316Z,17.38
2022-08-05T02:08:29.745Z,17.38
2022-08-05T02:09:02.009Z,17.38
2022-08-05T02:09:33.056Z,17.38
2022-08-05T02:10:07.854Z,17.38
2022-08-05T02:10:36.891Z,17.38
2022-08-05T02:11:12.030Z,17.38
2022-08-05T02:11:42.296Z,17.38
2022-08-05T02:12:15.648Z,17.38
2022-08-05T02:12:45.841Z,17.38
2022-08-05T02:13:18.053Z,17.38
2022-08-05T02:13:53.705Z,17.38
2022-08-05T02:14:21.744Z,17.27
2022-08-05T02:14:52.721Z,17.27
2022-08-05T02:15:25.998Z,17.27
2022-08-05T02:15:57.849Z,17.27
2022-08-05T02:16:29.611Z,17.27
2022-08-05T02:17:00.516Z,17.22
2022-08-05T02:18:31.171Z,17.22
2022-08-05T02:18:37.841Z,17.22
2022-08-05T02:19:09.424Z,17.22
2022-08-05T02:19:47.308Z,17.22
2022-08-05T02:20:16.876Z,17.22
2022-08-05T02:20:46.898Z,17.22
2022-08-05T02:21:16.440Z,17.22
2022-08-05T02:21:53.794Z,17.22
2022-08-05T02:22:25.893Z,17.22
2022-08-05T02:22:53.427Z,17.22
2022-08-05T02:23:24.333Z,17.22
2022-08-05T02:23:57.301Z,17.27
2022-08-05T02:24:28.381Z,17.27
2022-08-05T02:25:02.411Z,17.27
2022-08-05T02:25:33.069Z,17.22
2022-08-05T02:26:06.389Z,17.22
2022-08-05T02:26:36.117Z,17.22
2022-08-05T02:27:10.457Z,17.22
2022-08-05T02:27:59.645Z,17.22
2022-08-05T02:28:14.141Z,17.27
2022-08-05T02:28:46.030Z,17.27
2022-08-05T02:29:21.404Z,17.27
2022-08-05T02:30:00.086Z,17.27
2022-08-05T02:30:21.634Z,17.27
2022-08-05T02:30:54.704Z,17.27
2022-08-05T02:31:24.947Z,17.27
2022-08-05T02:31:56.077Z,17.27
2022-08-05T02:32:31.384Z,17.27
2022-08-05T02:32:59.877Z,17.27
2022-08-05T02:33:38.502Z,17.22
2022-08-05T02:34:04.042Z,17.22
2022-08-05T02:34:36.813Z,17.22
2022-08-05T02:35:13.775Z,17.22
2022-08-05T02:35:50.976Z,17.22
2022-08-05T02:36:15.380Z,17.22
2022-08-05T02:36:44.773Z,17.22
2022-08-05T02:37:18.800Z,17.11
2022-08-05T02:37:53.946Z,17.11
2022-08-05T02:38:19.966Z,17.11
2022-08-05T02:38:53.978Z,17.11
2022-08-05T02:39:23.754Z,17.11
2022-08-05T02:39:56.666Z,17.11
2022-08-05T02:40:29.107Z,17.11
2022-08-05T02:41:00.724Z,17.11
2022-08-05T02:41:42.893Z,17.11
2022-08-05T02:42:04.569Z,17.11
2022-08-05T02:42:36.323Z,17.11
2022-08-05T02:43:15.420Z,17.11
2022-08-05T02:43:25.462Z,17.00
2022-08-05T02:44:11.160Z,17.00
2022-08-05T02:44:34.960Z,17.00
2022-08-05T02:44:59.503Z,17.00
2022-08-05T02:45:52.239Z,17.00
2022-08-05T02:46:04.504Z,16.88
2022-08-05T02:46:35.305Z,16.88
2022-08-05T02:47:08.128Z,16.88
2022-08-05T02:48:09.870Z,16.88
2022-08-05T02:48:29.004Z,16.88
2022-08-05T02:48:59.247Z,16.88
2022-08-05T02:49:37.162Z,16.77
2022-08-05T02:50:03.338Z,16.77
2022-08-05T02:50:36.135Z,16.77
2022-08-05T02:51:07.351Z,16.77
2022-08-05T02:52:02.825Z,16.77
2022-08-05T02:52:11.551Z,16.77
2022-08-05T02:52:44.326Z,16.77
2022-08-05T02:53:18.991Z,16.77
2022-08-05T02:53:47.969Z,16.77
2022-08-05T02:54:36.431Z,16.77
2022-08-05T02:54:52.389Z,16.77
2022-08-05T02:55:53.940Z,16.77
2022-08-05T02:56:00.279Z,16.77
2022-08-05T02:56:26.999Z,16.77
2022-08-05T02:56:59.971Z,16.77
2022-08-05T02:58:09.707Z,16.77
2022-08-05T02:58:19.870Z,16.77
2022-08-05T02:58:51.568Z,16.77
2022-08-05T02:59:26.966Z,16.77
2022-08-05T02:59:54.931Z,16.77
2022-08-05T03:00:28.227Z,16.77
2022-08-05T03:00:59.379Z,16.77
2022-08-05T03:01:30.911Z,16.77
2022-08-05T03:02:02.851Z,16.77
2022-08-05T03:02:35.850Z,16.72
2022-08-05T03:03:10.314Z,16.72
2022-08-05T03:04:11.942Z,16.72
2022-08-05T03:04:27.741Z,16.72
2022-08-05T03:04:58.569Z,16.72
2022-08-05T03:06:54.060Z,16.72
2022-08-05T03:07:06.535Z,16.72
2022-08-05T03:07:59.467Z,16.72
2022-08-05T03:08:11.084Z,16.72
2022-08-05T03:08:43.302Z,16.72
2022-08-05T03:09:17.897Z,16.72
2022-08-05T03:09:51.698Z,16.72
2022-08-05T03:10:24.509Z,16.72
2022-08-05T03:11:41.140Z,16.72
2022-08-05T03:12:11.229Z,16.72
2022-08-05T03:12:43.367Z,16.72
2022-08-05T03:13:16.799Z,16.72
2022-08-05T03:13:51.822Z,16.72
2022-08-05T03:14:18.333Z,16.72
2022-08-05T03:14:50.281Z,16.72
2022-08-05T03:15:23.515Z,16.72
2022-08-05T03:15:54.195Z,16.72
2022-08-05T03:16:26.147Z,16.72
2022-08-05T03:17:08.936Z,16.72
2022-08-05T03:17:30.114Z,16.72
2022-08-05T03:18:02.112Z,16.72
2022-08-05T03:18:35.967Z,16.77
2022-08-05T03:19:12.983Z,16.77
2022-08-05T03:19:39.060Z,16.77
2022-08-05T03:20:10.394Z,16.77
2022-08-05T03:20:48.529Z,16.77
2022-08-05T03:21:13.829Z,16.72
2022-08-05T03:21:48.977Z,16.72
2022-08-05T03:22:18.895Z,16.72
2022-08-05T03:22:50.931Z,16.72
2022-08-05T03:23:24.182Z,16.72
2022-08-05T03:23:54.796Z,16.72
2022-08-05T03:24:30.076Z,16.61
2022-08-05T03:25:11.717Z,16.61
2022-08-05T03:26:04.353Z,16.61
2022-08-05T03:26:34.165Z,16.61
2022-08-05T03:27:06.688Z,16.61
2022-08-05T03:27:57.609Z,16.61
2022-08-05T03:28:10.709Z,16.61
2022-08-05T03:28:41.529Z,16.61
2022-08-05T03:29:17.427Z,16.61
2022-08-05T03:30:08.806Z,16.61
2022-08-05T03:30:19.017Z,16.61
2022-08-05T03:30:49.550Z,16.61
2022-08-05T03:31:55.598Z,16.72
2022-08-05T03:32:09.753Z,16.72
2022-08-05T03:32:41.516Z,16.72
2022-08-05T03:33:13.571Z,16.72
2022-08-05T03:33:52.811Z,16.77
2022-08-05T03:34:17.364Z,16.72
2022-08-05T03:34:51.531Z,16.72
2022-08-05T03:35:21.543Z,16.72
2022-08-05T03:35:54.380Z,16.72
2022-08-05T03:36:30.210Z,16.72
2022-08-05T03:36:57.430Z,16.72
2022-08-05T03:37:29.345Z,16.72
2022-08-05T03:38:02.481Z,16.72
2022-08-05T03:38:37.346Z,16.72
2022-08-05T03:39:05.473Z,16.72
2022-08-05T03:39:57.624Z,16.61
2022-08-05T03:40:11.969Z,16.61
2022-08-05T03:40:41.174Z,16.61
2022-08-05T03:41:13.148Z,16.61
2022-08-05T03:41:46.857Z,16.50
2022-08-05T03:42:17.390Z,16.50
2022-08-05T03:42:52.063Z,16.50
2022-08-05T03:44:08.241Z,16.50
2022-08-05T03:44:25.177Z,16.50
2022-08-05T03:44:57.169Z,16.50
2022-08-05T03:45:29.427Z,16.50
2022-08-05T03:46:01.103Z,16.50
2022-08-05T03:46:32.891Z,16.38
2022-08-05T03:47:04.982Z,16.38
2022-08-05T03:47:41.378Z,16.38
2022-08-05T03:48:16.036Z,16.38
2022-08-05T03:48:40.859Z,16.38
2022-08-05T03:49:12.918Z,16.38
2022-08-05T03:49:51.921Z,16.38
2022-08-05T03:50:16.852Z,16.38
2022-08-05T03:50:49.649Z,16.38
2022-08-05T03:52:38.509Z,16.38
2022-08-05T03:55:52.829Z,16.38
2022-08-05T03:56:27.853Z,16.38
2022-08-05T03:56:58.994Z,16.38
2022-08-05T03:57:42.275Z,16.50
2022-08-05T03:58:00.550Z,16.50
2022-08-05T03:58:35.840Z,16.50
2022-08-05T03:59:04.440Z,16.50
2022-08-05T03:59:46.814Z,16.50
2022-08-05T04:00:09.177Z,16.50
2022-08-05T04:00:42.043Z,16.50
2022-08-05T04:01:13.323Z,16.50
2022-08-05T04:01:45.605Z,16.50
2022-08-05T04:02:17.502Z,16.50
2022-08-05T04:02:58.753Z,16.50
2022-08-05T04:03:28.251Z,16.50
2022-08-05T04:04:09.179Z,16.50
2022-08-05T04:04:26.465Z,16.61
2022-08-05T04:04:57.757Z,16.61
2022-08-05T04:05:33.152Z,16.61
2022-08-05T04:06:01.113Z,16.61
2022-08-05T04:06:32.406Z,16.61
2022-08-05T04:07:05.030Z,16.61
2022-08-05T04:07:36.118Z,16.61
2022-08-05T04:08:30.145Z,16.61
2022-08-05T04:08:39.966Z,16.61
2022-08-05T04:09:13.073Z,16.50
2022-08-05T04:09:53.531Z,16.50
2022-08-05T04:10:17.503Z,16.50
2022-08-05T04:10:47.977Z,16.50
2022-08-05T04:11:20.934Z,16.50
2022-08-05T04:11:52.949Z,16.50
2022-08-05T04:12:25.009Z,16.50
2022-08-05T04:12:55.856Z,16.50
2022-08-05T04:13:50.849Z,16.50
2022-08-05T04:13:59.971Z,16.50
2022-08-05T04:14:33.117Z,16.50
2022-08-05T04:15:04.156Z,16.50
2022-08-05T04:15:36.920Z,16.50
2022-08-05T04:16:07.762Z,16.61
2022-08-05T04:16:40.769Z,16.61
2022-08-05T04:17:11.735Z,16.61
2022-08-05T04:17:56.188Z,16.61
2022-08-05T04:18:22.484Z,16.61
2022-08-05T04:18:48.705Z,16.61
2022-08-05T04:19:19.930Z,16.61
2022-08-05T04:19:54.448Z,16.61
2022-08-05T04:20:23.713Z,16.61
2022-08-05T04:20:56.552Z,16.61
2022-08-05T04:22:09.044Z,16.72
2022-08-05T04:22:15.557Z,16.72
2022-08-05T04:22:47.434Z,16.72
2022-08-05T04:23:19.417Z,16.72
2022-08-05T04:24:19.292Z,16.72
2022-08-05T04:24:44.098Z,16.72
2022-08-05T04:25:12.449Z,16.72
2022-08-05T04:26:00.640Z,16.72
2022-08-05T04:26:17.355Z,16.72
2022-08-05T04:26:47.369Z,16.72
2022-08-05T04:27:42.170Z,16.72
2022-08-05T04:28:11.267Z,16.72
2022-08-05T04:28:39.189Z,16.72
2022-08-05T04:29:11.216Z,16.72
2022-08-05T04:29:49.634Z,16.72
2022-08-05T04:30:15.652Z,16.72
2022-08-05T04:30:47.124Z,16.72
2022-08-05T04:31:19.179Z,16.72
2022-08-05T04:31:51.225Z,16.72
2022-08-05T04:32:31.008Z,16.77
2022-08-05T04:32:55.007Z,16.77
2022-08-05T04:33:54.966Z,16.77
2022-08-05T04:34:35.152Z,16.77
2022-08-05T04:35:03.127Z,16.77
2022-08-05T04:36:15.545Z,16.77
2022-08-05T04:36:55.971Z,16.88
2022-08-05T04:38:00.887Z,16.88
2022-08-05T04:38:15.467Z,16.88
2022-08-05T04:38:50.968Z,16.88
2022-08-05T04:39:18.859Z,16.88
2022-08-05T04:39:52.817Z,16.88
2022-08-05T04:40:31.430Z,16.88
2022-08-05T04:40:54.790Z,16.88
2022-08-05T04:41:36.912Z,16.88
2022-08-05T04:41:58.675Z,17.00
2022-08-05T04:42:32.387Z,17.00
2022-08-05T04:43:02.610Z,17.00
2022-08-05T04:43:36.528Z,17.00
2022-08-05T04:44:09.541Z,17.11
2022-08-05T04:44:40.569Z,17.11
2022-08-05T04:45:10.989Z,17.11
2022-08-05T04:45:48.144Z,17.11
2022-08-05T04:46:14.539Z,17.22
2022-08-05T04:46:47.448Z,17.22
2022-08-05T04:47:20.019Z,17.22
2022-08-05T04:47:51.407Z,17.22
2022-08-05T04:48:27.434Z,17.22
2022-08-05T04:48:58.725Z,17.22
2022-08-05T04:49:38.925Z,17.22
2022-08-05T04:50:14.547Z,17.22
2022-08-05T04:51:02.632Z,17.27
2022-08-05T04:51:18.315Z,17.27
2022-08-05T04:51:50.395Z,17.27
2022-08-05T04:52:22.408Z,17.27
2022-08-05T04:52:54.160Z,17.27
2022-08-05T04:53:26.168Z,17.27
2022-08-05T04:53:58.262Z,17.38
2022-08-05T04:54:30.097Z,17.38
2022-08-05T04:55:02.367Z,17.38
2022-08-05T04:56:15.390Z,17.38
2022-08-05T04:56:37.991Z,17.50
2022-08-05T04:57:11.037Z,17.50
2022-08-05T04:57:42.076Z,17.50
2022-08-05T04:58:14.452Z,17.50
2022-08-05T04:58:46.813Z,17.50
2022-08-05T04:59:23.963Z,17.50
2022-08-05T04:59:51.079Z,17.50
2022-08-05T05:00:23.213Z,17.50
2022-08-05T05:00:55.011Z,17.50
2022-08-05T05:02:08.116Z,17.50
2022-08-05T05:02:46.031Z,17.61
2022-08-05T05:03:18.805Z,17.61
2022-08-05T05:03:49.759Z,17.61
2022-08-05T05:04:21.856Z,17.61
2022-08-05T05:05:01.653Z,17.72
2022-08-05T05:05:28.125Z,17.72
2022-08-05T05:06:40.505Z,17.77
2022-08-05T05:07:01.507Z,17.77
2022-08-05T05:07:35.632Z,17.77
2022-08-05T05:08:05.695Z,17.77
2022-08-05T05:08:38.517Z,17.77
2022-08-05T05:09:09.474Z,17.77
2022-08-05T05:09:41.460Z,17.77
2022-08-05T05:10:13.724Z,17.77
2022-08-05T05:10:55.965Z,17.88
2022-08-05T05:11:17.465Z,17.88
2022-08-05T05:11:55.474Z,17.88
2022-08-05T05:12:22.234Z,17.88
2022-08-05T05:12:53.290Z,17.88
2022-08-05T05:13:25.431Z,18.00
2022-08-05T05:13:57.335Z,18.11
2022-08-05T05:14:31.872Z,18.22
2022-08-05T05:15:03.774Z,18.22
2022-08-05T05:15:57.059Z,18.22
2022-08-05T05:16:06.066Z,18.22
2022-08-05T05:16:37.329Z,18.22
2022-08-05T05:17:19.875Z,18.27
2022-08-05T05:17:56.764Z,18.27
2022-08-05T05:18:14.038Z,18.27
2022-08-05T05:19:02.510Z,18.38
2022-08-05T05:19:36.531Z,18.38
2022-08-05T05:20:06.269Z,18.38
2022-08-05T05:20:37.571Z,18.38
2022-08-05T05:21:11.857Z,18.38
2022-08-05T05:21:41.012Z,18.38
2022-08-05T05:22:24.320Z,18.38
2022-08-05T05:22:45.059Z,18.27
2022-08-05T05:23:19.499Z,18.22
2022-08-05T05:24:03.895Z,18.00
2022-08-05T05:24:56.442Z,17.88
2022-08-05T05:25:16.782Z,17.88
2022-08-05T05:25:41.097Z,17.88
2022-08-05T05:26:14.491Z,18.00
2022-08-05T05:26:46.564Z,18.00
2022-08-05T05:27:17.939Z,18.11
2022-08-05T05:27:53.935Z,18.11
2022-08-05T05:28:21.794Z,18.11
2022-08-05T05:28:52.797Z,18.22
2022-08-05T05:29:24.811Z,18.22
2022-08-05T05:30:15.383Z,18.38
2022-08-05T05:30:49.518Z,18.61
2022-08-05T05:31:18.481Z,18.77
2022-08-05T05:31:48.664Z,18.88
2022-08-05T05:32:21.896Z,19.00
2022-08-05T05:32:52.666Z,19.00
2022-08-05T05:33:24.622Z,19.11
2022-08-05T05:33:59.169Z,19.22
2022-08-05T05:34:28.509Z,19.27
2022-08-05T05:35:00.659Z,19.38
2022-08-05T05:35:38.073Z,19.50
2022-08-05T05:36:04.604Z,19.61
2022-08-05T05:36:37.370Z,19.61
2022-08-05T05:37:08.389Z,19.72
2022-08-05T05:37:59.954Z,19.72
2022-08-05T05:38:14.116Z,19.77
2022-08-05T05:38:44.351Z,19.77
2022-08-05T05:39:16.397Z,20.00
2022-08-05T05:39:48.435Z,20.00
2022-08-05T05:40:21.434Z,20.22
2022-08-05T05:40:52.452Z,20.22
2022-08-05T05:41:24.245Z,20.27
2022-08-05T05:41:56.150Z,20.38
2022-08-05T05:42:28.469Z,20.50
2022-08-05T05:43:02.187Z,20.72
2022-08-05T05:43:58.272Z,20.77
2022-08-05T05:44:04.044Z,21.00
2022-08-05T05:44:53.182Z,21.38
2022-08-05T05:45:24.727Z,21.72
2022-08-05T05:45:58.079Z,21.77
2022-08-05T05:46:28.230Z,21.77
2022-08-05T05:47:04.369Z,21.77
2022-08-05T05:48:07.140Z,21.77
2022-08-05T05:48:19.875Z,21.77
2022-08-05T05:48:53.983Z,21.72
2022-08-05T05:49:23.905Z,21.72
2022-08-05T05:49:56.912Z,21.72
2022-08-05T05:50:28.006Z,21.72
2022-08-05T05:50:59.866Z,21.72
2022-08-05T05:51:49.640Z,21.77
2022-08-05T05:52:05.739Z,21.88
2022-08-05T05:52:38.065Z,22.00
2022-08-05T05:53:21.084Z,22.11
2022-08-05T05:53:54.569Z,22.11
2022-08-05T05:54:11.775Z,22.11
2022-08-05T05:54:50.089Z,22.11
2022-08-05T05:55:15.835Z,22.11
2022-08-05T05:55:51.464Z,22.11
2022-08-05T05:56:26.058Z,22.11
2022-08-05T05:56:51.751Z,22.11
2022-08-05T05:57:23.564Z,22.11
2022-08-05T05:57:55.522Z,22.00
2022-08-05T05:58:30.113Z,22.00
2022-08-05T05:59:03.361Z,22.00
2022-08-05T05:59:32.060Z,22.00
2022-08-05T06:00:04.079Z,22.11
2022-08-05T06:00:35.492Z,22.22
2022-08-05T06:01:12.850Z,22.27
2022-08-05T06:01:40.003Z,22.27
2022-08-05T06:02:12.449Z,22.38
2022-08-05T06:02:43.279Z,22.38
2022-08-05T06:03:39.900Z,22.38
2022-08-05T06:04:03.859Z,22.50
2022-08-05T06:04:35.496Z,22.61
2022-08-05T06:05:16.426Z,22.61
2022-08-05T06:05:39.211Z,22.77
2022-08-05T06:06:11.332Z,22.77
2022-08-05T06:06:46.609Z,22.77
2022-08-05T06:07:15.039Z,22.77
2022-08-05T06:08:01.192Z,22.77
2022-08-05T06:08:32.351Z,22.88
2022-08-05T06:08:51.300Z,22.88
2022-08-05T06:09:25.935Z,23.22
2022-08-05T06:10:01.493Z,23.38
2022-08-05T06:10:29.383Z,23.72
2022-08-05T06:10:59.020Z,23.72
2022-08-05T06:11:31.104Z,23.72
2022-08-05T06:12:03.172Z,23.72
2022-08-05T06:12:35.037Z,23.72
2022-08-05T06:13:06.927Z,23.72
2022-08-05T06:13:40.883Z,23.72
2022-08-05T06:14:10.998Z,23.72
2022-08-05T06:14:45.005Z,23.72
2022-08-05T06:15:24.094Z,23.72
2022-08-05T06:16:28.432Z,23.72
2022-08-05T06:16:37.361Z,23.72
2022-08-05T06:17:22.655Z,23.72
2022-08-05T06:17:56.742Z,23.72
2022-08-05T06:18:31.613Z,23.77
2022-08-05T06:19:00.911Z,23.77
2022-08-05T06:19:35.384Z,23.88
2022-08-05T06:20:02.813Z,23.88
2022-08-05T06:20:34.792Z,23.88
2022-08-05T06:21:08.036Z,23.88
2022-08-05T06:21:42.311Z,23.88
2022-08-05T06:22:10.545Z,24.00
2022-08-05T06:22:42.639Z,24.00
2022-08-05T06:23:14.639Z,24.11
2022-08-05T06:23:46.516Z,24.22
2022-08-05T06:24:27.250Z,24.22
2022-08-05T06:24:50.542Z,24.27
2022-08-05T06:25:25.207Z,24.38
2022-08-05T06:26:27.542Z,24.50
2022-08-05T06:26:59.284Z,24.61
2022-08-05T06:28:12.287Z,24.72
2022-08-05T06:28:34.424Z,24.77
2022-08-05T06:29:25.221Z,24.88
2022-08-05T06:30:04.375Z,24.88
2022-08-05T06:30:27.332Z,24.88
2022-08-05T06:30:59.258Z,24.88
2022-08-05T06:31:37.599Z,25.00
2022-08-05T06:32:02.539Z,25.00
2022-08-05T06:32:34.144Z,25.27
2022-08-05T06:33:10.797Z,25.72
2022-08-05T06:34:06.889Z,25.88
2022-08-05T06:34:27.805Z,26.22
2022-08-05T06:34:58.195Z,26.22
2022-08-05T06:36:05.693Z,26.22
2022-08-05T06:36:18.693Z,25.77
2022-08-05T06:36:57.967Z,25.77
2022-08-05T06:37:56.114Z,25.77
2022-08-05T06:38:11.644Z,25.77
2022-08-05T06:38:47.200Z,25.77
2022-08-05T06:39:14.001Z,25.61
2022-08-05T06:39:46.582Z,25.38
2022-08-05T06:40:21.394Z,25.22
2022-08-05T06:40:49.875Z,25.22
2022-08-05T06:41:21.767Z,25.22
2022-08-05T06:41:53.716Z,25.27
2022-08-05T06:42:26.081Z,25.38
2022-08-05T06:42:57.781Z,25.50
2022-08-05T06:43:51.536Z,25.50
2022-08-05T06:44:01.732Z,25.50
2022-08-05T06:44:33.655Z,25.27
2022-08-05T06:45:08.671Z,25.27
2022-08-05T06:46:03.412Z,25.27
2022-08-05T06:46:09.694Z,25.27
2022-08-05T06:46:41.784Z,25.27
2022-08-05T06:47:42.191Z,25.27
2022-08-05T06:48:50.227Z,25.38
2022-08-05T06:49:07.660Z,25.61
2022-08-05T06:50:01.832Z,25.72
2022-08-05T06:50:11.102Z,25.72
2022-08-05T06:50:41.370Z,25.72
2022-08-05T06:51:22.800Z,25.61
2022-08-05T06:51:45.446Z,25.61
2022-08-05T06:52:37.816Z,25.61
2022-08-05T06:52:58.648Z,25.50
2022-08-05T06:53:27.732Z,25.50
2022-08-05T06:53:54.117Z,25.50
2022-08-05T06:54:25.785Z,25.50
2022-08-05T06:54:57.200Z,25.50
2022-08-05T06:55:30.199Z,25.50
2022-08-05T06:56:01.108Z,25.61
2022-08-05T06:56:35.162Z,25.61
2022-08-05T06:57:56.578Z,25.72
2022-08-05T06:58:20.356Z,25.72
2022-08-05T06:58:42.845Z,25.77
2022-08-05T06:59:13.069Z,26.00
2022-08-05T06:59:48.599Z,26.00
2022-08-05T07:00:23.651Z,26.11
2022-08-05T07:00:49.638Z,26.22
2022-08-05T07:01:21.304Z,26.22
2022-08-05T07:01:53.913Z,26.61
2022-08-05T07:02:24.981Z,26.88
2022-08-05T07:02:58.722Z,27.22
2022-08-05T07:03:32.413Z,27.27
2022-08-05T07:04:02.196Z,27.27
2022-08-05T07:04:33.047Z,27.38
2022-08-05T07:05:14.340Z,27.50
2022-08-05T07:05:37.779Z,27.61
2022-08-05T07:06:15.127Z,27.61
2022-08-05T07:06:40.762Z,27.61
2022-08-05T07:07:13.163Z,27.61
2022-08-05T07:07:44.811Z,27.50
2022-08-05T07:08:18.579Z,27.38
2022-08-05T07:08:52.010Z,27.38
2022-08-05T07:09:21.252Z,27.27
2022-08-05T07:09:55.676Z,27.27
2022-08-05T07:10:30.468Z,27.27
2022-08-05T07:10:56.494Z,27.22
2022-08-05T07:11:29.250Z,27.22
2022-08-05T07:12:00.790Z,27.22
2022-08-05T07:12:33.358Z,27.27
2022-08-05T07:13:06.617Z,27.50
2022-08-05T07:13:57.611Z,27.50
2022-08-05T07:14:08.449Z,27.61
2022-08-05T07:14:41.054Z,27.61
2022-08-05T07:15:12.722Z,27.72
2022-08-05T07:16:01.602Z,27.72